createdAt,value
2022-08-14T00:01:14.302Z,5.68
2022-08-14T00:03:32.433Z,6.20
2022-08-14T00:05:50.858Z,5.72
2022-08-14T00:08:18.131Z,5.18
2022-08-14T00:10:56.161Z,6.38
2022-08-14T00:13:14.400Z,6.05
2022-08-14T00:15:43.599Z,5.82
2022-08-14T00:18:02.919Z,6.20
2022-08-14T00:20:30.923Z,6.03
2022-08-14T00:22:57.399Z,5.93
2022-08-14T00:25:16.739Z,6.07
2022-08-14T00:27:37.707Z,5.75
2022-08-14T00:29:56.122Z,6.07
2022-08-14T00:32:52.369Z,5.88
2022-08-14T00:34:52.890Z,6.45
2022-08-14T00:37:11.492Z,6.20
2022-08-14T00:39:30.410Z,5.68
2022-08-14T00:41:48.931Z,6.03
2022-08-14T00:44:08.184Z,5.90
2022-08-14T00:46:33.185Z,6.30
2022-08-14T00:48:51.881Z,5.43
2022-08-14T00:51:11.969Z,6.57
2022-08-14T00:53:29.924Z,6.03
2022-08-14T00:55:49.385Z,5.75
2022-08-14T00:58:27.839Z,6.10
2022-08-14T01:03:17.783Z,6.00
2022-08-14T01:05:41.898Z,5.55
2022-08-14T01:08:50.487Z,6.22
2022-08-14T01:10:52.767Z,5.80
2022-08-14T01:13:14.129Z,6.75
2022-08-14T01:15:58.745Z,6.35
2022-08-14T01:18:28.720Z,5.88
2022-08-14T01:21:06.441Z,5.95
2022-08-14T01:23:25.480Z,5.85
2022-08-14T01:25:59.757Z,5.65
2022-08-14T01:28:47.251Z,5.75
2022-08-14T01:30:57.744Z,5.95
2022-08-14T01:33:15.650Z,6.00
2022-08-14T01:36:03.867Z,5.65
2022-08-14T01:38:16.539Z,5.95
2022-08-14T01:40:41.141Z,6.13
2022-08-14T01:43:00.068Z,6.18
2022-08-14T01:45:25.595Z,6.07
2022-08-14T01:47:43.721Z,5.78
2022-08-14T01:50:02.087Z,5.80
2022-08-14T01:52:34.011Z,6.07
2022-08-14T01:55:01.802Z,6.40
2022-08-14T01:57:19.570Z,6.13
2022-08-14T01:59:38.732Z,6.18
2022-08-14T02:02:04.693Z,5.88
2022-08-14T02:04:55.962Z,5.82
2022-08-14T02:07:15.728Z,6.32
2022-08-14T02:09:38.475Z,6.13
2022-08-14T02:11:57.853Z,5.63
2022-08-14T02:14:15.744Z,6.03
2022-08-14T02:16:54.883Z,6.38
2022-08-14T02:19:15.247Z,5.50
2022-08-14T02:21:43.764Z,6.20
2022-08-14T02:24:05.829Z,6.07
2022-08-14T02:28:18.587Z,6.63
2022-08-14T02:30:00.636Z,5.32
2022-08-14T02:32:07.815Z,6.15
2022-08-14T02:34:38.713Z,5.70
2022-08-14T02:37:06.718Z,6.10
2022-08-14T02:39:24.908Z,5.88
2022-08-14T02:41:52.717Z,6.38
2022-08-14T02:44:21.661Z,6.40
2022-08-14T02:46:49.767Z,6.30
2022-08-14T02:49:07.769Z,5.93
2022-08-14T02:51:30.700Z,5.82
2022-08-14T02:53:48.725Z,6.10
2022-08-14T02:56:30.529Z,6.30
2022-08-14T02:58:55.571Z,6.38
2022-08-14T03:01:15.682Z,6.97
2022-08-14T03:03:35.470Z,6.45
2022-08-14T03:05:56.967Z,6.00
2022-08-14T03:08:16.117Z,5.97
2022-08-14T03:10:41.640Z,6.27
2022-08-14T03:13:00.700Z,6.60
2022-08-14T03:15:19.199Z,6.22
2022-08-14T03:17:56.438Z,6.32
2022-08-14T03:20:15.801Z,6.32
2022-08-14T03:22:35.169Z,6.38
2022-08-14T03:24:53.149Z,6.65
2022-08-14T03:27:14.110Z,6.47
2022-08-14T03:29:32.381Z,7.05
2022-08-14T03:31:52.019Z,6.55
2022-08-14T03:34:24.682Z,6.43
2022-08-14T03:37:39.446Z,6.50
2022-08-14T03:39:33.022Z,6.35
2022-08-14T03:41:51.771Z,6.35
2022-08-14T03:45:18.799Z,5.90
2022-08-14T03:46:54.655Z,6.53
2022-08-14T03:49:14.693Z,6.50
2022-08-14T03:51:42.664Z,5.50
2022-08-14T03:54:02.115Z,6.45
2022-08-14T03:56:21.488Z,6.57
2022-08-14T03:58:42.362Z,6.40
2022-08-14T04:01:01.132Z,6.15
2022-08-14T04:03:24.033Z,6.72
2022-08-14T04:05:49.014Z,6.63
2022-08-14T04:08:22.949Z,6.32
2022-08-14T04:10:47.887Z,6.25
2022-08-14T04:13:08.133Z,6.13
2022-08-14T04:15:27.517Z,6.10
2022-08-14T04:17:46.295Z,6.60
2022-08-14T04:20:06.297Z,7.00
2022-08-14T04:22:27.825Z,6.85
2022-08-14T04:24:46.049Z,7.00
2022-08-14T04:27:13.216Z,6.60
2022-08-14T04:29:38.405Z,6.95
2022-08-14T04:33:00.675Z,7.00
2022-08-14T04:34:35.252Z,7.03
2022-08-14T04:37:13.064Z,6.38
2022-08-14T04:39:56.912Z,6.45
2022-08-14T04:42:34.242Z,7.07
2022-08-14T04:44:52.667Z,6.57
2022-08-14T04:47:37.824Z,6.35
2022-08-14T04:50:07.583Z,7.22
2022-08-14T04:52:26.341Z,6.65
2022-08-14T04:54:44.160Z,6.97
2022-08-14T04:57:03.616Z,6.55
2022-08-14T04:59:21.874Z,6.93
2022-08-14T05:01:49.787Z,7.45
2022-08-14T05:04:08.889Z,7.38
2022-08-14T05:06:37.173Z,7.25
2022-08-14T05:09:00.006Z,7.07
2022-08-14T05:11:19.895Z,7.18
2022-08-14T05:13:47.472Z,6.88
2022-08-14T05:16:16.529Z,7.18
2022-08-14T05:18:52.942Z,7.05
2022-08-14T05:21:59.945Z,7.22
2022-08-14T05:23:53.811Z,7.93
2022-08-14T05:26:13.409Z,6.57
2022-08-14T05:28:33.456Z,7.55
2022-08-14T05:31:20.624Z,8.18
2022-08-14T05:33:39.210Z,7.75
2022-08-14T05:36:04.727Z,8.20
2022-08-14T05:38:31.160Z,7.60
2022-08-14T05:40:50.189Z,8.02
2022-08-14T05:43:08.265Z,7.82
2022-08-14T05:45:26.540Z,7.82
2022-08-14T05:47:44.450Z,7.57
2022-08-14T05:50:18.813Z,7.95
2022-08-14T05:52:39.248Z,7.93
2022-08-14T05:54:58.484Z,7.88
2022-08-14T05:57:16.646Z,8.30
2022-08-14T05:59:38.973Z,7.93
2022-08-14T06:01:58.166Z,8.40
2022-08-14T06:04:16.175Z,8.13
2022-08-14T06:06:38.301Z,8.77
2022-08-14T06:11:20.359Z,8.30
2022-08-14T06:13:49.080Z,7.90
2022-08-14T06:16:10.394Z,8.25
2022-08-14T06:18:32.229Z,8.07
2022-08-14T06:20:50.265Z,8.55
2022-08-14T06:23:08.541Z,7.70
2022-08-14T06:25:27.996Z,8.40
2022-08-14T06:27:48.021Z,8.43
2022-08-14T06:30:10.912Z,7.75
2022-08-14T06:32:37.894Z,8.30
2022-08-14T06:35:10.329Z,8.63
2022-08-14T06:37:39.228Z,8.38
2022-08-14T06:39:59.238Z,7.72
2022-08-14T06:42:31.299Z,8.23
2022-08-14T06:44:51.020Z,7.78
2022-08-14T06:47:10.933Z,7.05
2022-08-14T06:49:30.533Z,8.13
2022-08-14T06:51:52.144Z,8.07
2022-08-14T06:54:12.745Z,7.60
2022-08-14T06:56:30.811Z,8.32
2022-08-14T06:58:48.591Z,8.43
2022-08-14T07:01:27.447Z,7.70
2022-08-14T07:04:04.328Z,7.53
2022-08-14T07:06:46.367Z,8.27
2022-08-14T07:09:00.312Z,7.53
2022-08-14T07:11:18.631Z,6.95
2022-08-14T07:13:37.840Z,7.13
2022-08-14T07:15:58.493Z,7.82
2022-08-14T07:18:20.091Z,8.32
2022-08-14T07:20:38.907Z,7.35
2022-08-14T07:23:02.469Z,7.25
2022-08-14T07:25:32.906Z,8.00
2022-08-14T07:27:51.347Z,7.25
2022-08-14T07:30:34.107Z,7.55
2022-08-14T07:32:49.112Z,6.78
2022-08-14T07:35:08.586Z,7.43
2022-08-14T07:37:26.548Z,7.95
2022-08-14T07:39:45.018Z,7.05
2022-08-14T07:42:03.407Z,6.32
2022-08-14T07:44:32.586Z,7.22
2022-08-14T07:46:53.950Z,7.85
2022-08-14T07:49:12.570Z,8.43
2022-08-14T07:51:37.181Z,6.82
2022-08-14T07:53:57.151Z,6.40
2022-08-14T07:56:43.776Z,7.00
2022-08-14T07:58:53.179Z,6.97
2022-08-14T08:01:12.384Z,7.10
2022-08-14T08:03:35.029Z,6.95
2022-08-14T08:05:52.917Z,6.70
2022-08-14T08:08:27.199Z,7.05
2022-08-14T08:11:02.817Z,7.22
2022-08-14T08:13:24.213Z,7.00
2022-08-14T08:15:44.332Z,6.97
2022-08-14T08:18:05.818Z,7.28
2022-08-14T08:20:27.166Z,6.47
2022-08-14T08:22:48.044Z,7.05
2022-08-14T08:25:13.513Z,7.20
2022-08-14T08:27:31.829Z,6.60
2022-08-14T08:29:51.301Z,6.10
2022-08-14T08:32:09.346Z,6.30
2022-08-14T08:34:30.461Z,6.20
2022-08-14T08:36:48.585Z,6.15
2022-08-14T08:39:14.804Z,6.45
2022-08-14T08:41:44.103Z,6.25
2022-08-14T08:44:16.988Z,6.43
2022-08-14T08:46:44.880Z,6.15
2022-08-14T08:49:06.035Z,6.57
2022-08-14T08:51:34.418Z,6.35
2022-08-14T08:53:58.770Z,6.03
2022-08-14T08:56:30.259Z,6.28
2022-08-14T08:58:54.809Z,6.10
2022-08-14T09:01:13.737Z,6.32
2022-08-14T09:03:34.898Z,6.50
2022-08-14T09:05:56.281Z,5.97
2022-08-14T09:08:30.299Z,5.70
2022-08-14T09:10:52.446Z,6.00
2022-08-14T09:13:15.346Z,5.75
2022-08-14T09:15:36.747Z,5.80
2022-08-14T09:18:01.394Z,5.50
2022-08-14T09:20:29.661Z,5.50
2022-08-14T09:22:49.431Z,5.78
2022-08-14T09:25:08.657Z,6.20
2022-08-14T09:27:27.181Z,5.07
2022-08-14T09:29:54.313Z,5.88
2022-08-14T09:32:58.619Z,5.63
2022-08-14T09:35:03.865Z,5.55
2022-08-14T09:37:45.424Z,5.60
2022-08-14T09:40:23.913Z,5.82
2022-08-14T09:42:50.025Z,5.55
2022-08-14T09:45:19.805Z,5.10
2022-08-14T09:47:57.390Z,5.35
2022-08-14T09:50:22.167Z,5.78
2022-08-14T09:52:54.755Z,5.43
2022-08-14T09:55:19.674Z,5.72
2022-08-14T09:57:39.866Z,6.22
2022-08-14T09:59:58.111Z,5.35
2022-08-14T10:02:22.819Z,5.55
2022-08-14T10:04:46.035Z,5.65
2022-08-14T10:07:10.225Z,5.68
2022-08-14T10:09:33.368Z,5.90
2022-08-14T10:11:59.869Z,5.60
2022-08-14T10:14:34.737Z,6.00
2022-08-14T10:16:55.585Z,5.85
2022-08-14T10:19:18.888Z,5.90
2022-08-14T10:23:10.805Z,6.28
2022-08-14T10:24:36.068Z,5.50
2022-08-14T10:27:01.125Z,6.30
2022-08-14T10:29:23.528Z,5.35
2022-08-14T10:31:45.282Z,5.77
2022-08-14T10:34:12.867Z,5.47
2022-08-14T10:36:37.019Z,5.72
2022-08-14T10:39:00.386Z,6.00
2022-08-14T10:41:19.928Z,5.53
2022-08-14T10:43:38.372Z,6.25
2022-08-14T10:46:59.042Z,5.55
2022-08-14T10:48:43.377Z,5.80
2022-08-14T10:51:03.827Z,6.07
2022-08-14T10:53:30.298Z,5.47
2022-08-14T10:55:58.786Z,5.38
2022-08-14T10:58:17.230Z,5.68
2022-08-14T11:00:36.019Z,5.45
2022-08-14T11:02:58.573Z,5.72
2022-08-14T11:05:18.838Z,5.78
2022-08-14T11:07:40.352Z,5.15
2022-08-14T11:10:02.979Z,5.63
2022-08-14T11:12:35.002Z,5.53
2022-08-14T11:15:03.083Z,5.65
2022-08-14T11:17:21.819Z,5.30
2022-08-14T11:19:40.084Z,5.55
2022-08-14T11:22:01.227Z,6.00
2022-08-14T11:24:54.153Z,5.30
2022-08-14T11:26:59.844Z,5.65
2022-08-14T11:29:22.133Z,5.10
2022-08-14T11:31:44.779Z,5.20
2022-08-14T11:34:32.336Z,5.55
2022-08-14T11:37:03.850Z,5.35
2022-08-14T11:39:35.091Z,5.72
2022-08-14T11:41:58.211Z,5.47
2022-08-14T11:44:17.777Z,4.87
2022-08-14T11:46:55.429Z,4.72
2022-08-14T11:49:18.537Z,4.97
2022-08-14T11:51:53.797Z,5.47
2022-08-14T11:54:15.815Z,5.18
2022-08-14T11:56:40.915Z,5.35
2022-08-14T11:58:58.906Z,5.30
2022-08-14T12:01:16.868Z,5.18
2022-08-14T12:03:52.307Z,5.50
2022-08-14T12:06:29.310Z,5.15
2022-08-14T12:08:57.007Z,5.50
2022-08-14T12:11:18.227Z,5.43
2022-08-14T12:13:36.391Z,5.28
2022-08-14T12:15:59.073Z,5.85
2022-08-14T12:18:19.230Z,5.25
2022-08-14T12:20:45.986Z,5.30
2022-08-14T12:23:23.951Z,5.57
2022-08-14T12:25:43.207Z,4.95
2022-08-14T12:28:27.193Z,4.97
2022-08-14T12:30:53.531Z,5.15
2022-08-14T12:33:33.489Z,5.10
2022-08-14T12:35:56.240Z,5.13
2022-08-14T12:38:19.320Z,4.93
2022-08-14T12:40:52.071Z,5.18
2022-08-14T12:43:14.167Z,4.70
2022-08-14T12:45:34.708Z,5.10
2022-08-14T12:48:00.831Z,5.63
2022-08-14T12:50:40.722Z,5.00
2022-08-14T12:53:13.980Z,5.00
2022-08-14T12:56:17.507Z,4.97
2022-08-14T12:58:35.388Z,5.43
2022-08-14T13:01:12.582Z,5.00
2022-08-14T13:03:30.940Z,5.10
2022-08-14T13:05:50.136Z,5.47
2022-08-14T13:08:10.670Z,4.95
2022-08-14T13:10:52.394Z,5.15
2022-08-14T13:13:15.290Z,4.63
2022-08-14T13:15:33.996Z,5.00
2022-08-14T13:17:53.445Z,4.93
2022-08-14T13:20:24.385Z,5.13
2022-08-14T13:22:45.304Z,5.65
2022-08-14T13:25:06.667Z,4.80
2022-08-14T13:27:25.709Z,5.15
2022-08-14T13:29:47.443Z,5.30
2022-08-14T13:32:06.700Z,5.40
2022-08-14T13:34:25.768Z,5.00
2022-08-14T13:36:54.520Z,5.75
2022-08-14T13:39:18.004Z,5.47
2022-08-14T13:41:38.042Z,5.57
2022-08-14T13:44:00.130Z,5.35
2022-08-14T13:46:21.769Z,5.18
2022-08-14T13:48:44.685Z,5.20
2022-08-14T13:51:10.785Z,5.10
2022-08-14T13:53:33.474Z,5.22
2022-08-14T13:55:53.250Z,5.28
2022-08-14T13:58:30.238Z,5.00
2022-08-14T14:00:55.402Z,4.90
2022-08-14T14:05:52.081Z,5.10
2022-08-14T14:08:18.537Z,5.10
2022-08-14T14:10:37.846Z,5.07
2022-08-14T14:12:57.675Z,4.82
2022-08-14T14:15:18.394Z,5.18
2022-08-14T14:17:41.277Z,4.90
2022-08-14T14:20:04.518Z,4.75
2022-08-14T14:23:01.165Z,5.20
2022-08-14T14:25:02.091Z,5.82
2022-08-14T14:27:40.615Z,4.57
2022-08-14T14:30:03.374Z,4.70
2022-08-14T14:32:33.397Z,5.10
2022-08-14T14:34:54.252Z,4.60
2022-08-14T14:37:15.776Z,4.78
2022-08-14T14:39:35.314Z,5.10
2022-08-14T14:42:00.727Z,5.45
2022-08-14T14:44:26.803Z,4.72
2022-08-14T14:49:11.749Z,4.70
2022-08-14T14:51:32.158Z,4.93
2022-08-14T14:53:49.988Z,4.80
2022-08-14T14:56:50.997Z,5.10
2022-08-14T14:58:49.649Z,4.82
2022-08-14T15:01:11.598Z,5.30
2022-08-14T15:03:30.179Z,4.97
2022-08-14T15:05:53.725Z,4.80
2022-08-14T15:08:17.103Z,4.40
2022-08-14T15:10:44.341Z,5.10
2022-08-14T15:13:06.792Z,4.75
2022-08-14T15:15:25.414Z,5.18
2022-08-14T15:17:43.282Z,4.90
2022-08-14T15:20:03.879Z,4.72
2022-08-14T15:22:22.596Z,4.53
2022-08-14T15:24:43.699Z,5.68
2022-08-14T15:27:07.377Z,4.75
2022-08-14T15:29:27.243Z,5.23
2022-08-14T15:31:45.197Z,4.78
2022-08-14T15:34:43.194Z,4.78
2022-08-14T15:36:51.287Z,4.43
2022-08-14T15:39:09.755Z,4.78
2022-08-14T15:41:41.244Z,4.68
2022-08-14T15:44:00.794Z,5.00
2022-08-14T15:46:41.455Z,4.38
2022-08-14T15:48:59.101Z,5.30
2022-08-14T15:51:17.848Z,4.88
2022-08-14T15:53:35.902Z,4.95
2022-08-14T15:55:55.551Z,4.65
2022-08-14T15:58:14.501Z,4.15
2022-08-14T16:00:53.021Z,4.88
2022-08-14T16:03:12.769Z,5.40
2022-08-14T16:05:38.621Z,4.82
2022-08-14T16:07:58.000Z,4.55
2022-08-14T16:10:29.185Z,4.60
2022-08-14T16:12:48.694Z,5.25
2022-08-14T16:15:07.044Z,5.20
2022-08-14T16:17:27.934Z,4.55
2022-08-14T16:19:47.807Z,4.97
2022-08-14T16:22:58.724Z,5.00
2022-08-14T16:25:00.298Z,4.50
2022-08-14T16:27:24.771Z,4.60
2022-08-14T16:29:53.044Z,4.47
2022-08-14T16:32:32.821Z,5.07
2022-08-14T16:34:54.912Z,4.75
2022-08-14T16:37:16.822Z,5.30
2022-08-14T16:39:37.775Z,4.53
2022-08-14T16:41:58.993Z,5.07
2022-08-14T16:44:31.385Z,5.43
2022-08-14T16:46:57.141Z,5.40
2022-08-14T16:49:17.517Z,5.32
2022-08-14T16:51:36.473Z,5.40
2022-08-14T16:53:59.163Z,5.35
2022-08-14T16:56:25.554Z,4.97
2022-08-14T16:58:50.030Z,5.03
2022-08-14T17:01:22.574Z,4.97
2022-08-14T17:03:59.849Z,5.10
2022-08-14T17:06:36.516Z,5.25
2022-08-14T17:08:57.625Z,5.18
2022-08-14T17:11:16.030Z,5.15
2022-08-14T17:13:57.817Z,4.80
2022-08-14T17:16:25.079Z,4.97
2022-08-14T17:18:45.218Z,5.10
2022-08-14T17:21:31.946Z,5.40
2022-08-14T17:23:52.468Z,5.25
2022-08-14T17:26:32.263Z,5.53
2022-08-14T17:29:04.858Z,5.38
2022-08-14T17:33:44.373Z,4.88
2022-08-14T17:36:10.853Z,5.10
2022-08-14T17:38:41.290Z,5.55
2022-08-14T17:41:19.259Z,5.45
2022-08-14T17:43:42.019Z,6.05
2022-08-14T17:46:00.686Z,5.63
2022-08-14T17:49:16.254Z,4.95
2022-08-14T17:51:07.995Z,5.70
2022-08-14T17:53:31.366Z,6.32
2022-08-14T17:56:03.292Z,5.95
2022-08-14T17:58:24.638Z,5.63
2022-08-14T18:00:44.638Z,5.65
2022-08-14T18:03:07.977Z,6.10
2022-08-14T18:06:07.433Z,6.10
2022-08-14T18:08:32.103Z,5.68
2022-08-14T18:10:55.930Z,6.00
2022-08-14T18:13:15.058Z,6.35
2022-08-14T18:15:37.391Z,6.68
2022-08-14T18:17:55.802Z,6.15
2022-08-14T18:21:39.577Z,6.47
2022-08-14T18:22:54.691Z,6.57
2022-08-14T18:25:18.246Z,7.00
2022-08-14T18:27:41.650Z,6.35
2022-08-14T18:30:00.539Z,6.32
2022-08-14T18:32:46.258Z,5.80
2022-08-14T18:35:11.036Z,6.30
2022-08-14T18:37:31.330Z,5.72
2022-08-14T18:40:03.112Z,6.03
2022-08-14T18:42:23.495Z,6.03
2022-08-14T18:44:52.666Z,6.43
2022-08-14T18:47:22.121Z,6.88
2022-08-14T18:49:56.428Z,6.38
2022-08-14T18:52:18.682Z,6.30
2022-08-14T18:54:38.407Z,6.70
2022-08-14T18:56:57.777Z,6.00
2022-08-14T18:59:40.218Z,6.18
2022-08-14T19:02:20.705Z,6.72
2022-08-14T19:04:41.854Z,6.35
2022-08-14T19:07:16.487Z,6.75
2022-08-14T19:09:53.295Z,5.75
2022-08-14T19:12:15.191Z,6.40
2022-08-14T19:14:47.473Z,6.28
2022-08-14T19:17:26.018Z,6.47
2022-08-14T19:20:03.525Z,6.20
2022-08-14T19:22:31.955Z,6.32
2022-08-14T19:24:50.149Z,5.97
2022-08-14T19:27:24.128Z,6.13
2022-08-14T19:29:42.883Z,6.72
2022-08-14T19:32:07.051Z,6.80
2022-08-14T19:34:52.704Z,6.70
2022-08-14T19:37:11.598Z,6.43
2022-08-14T19:39:53.728Z,6.88
2022-08-14T19:42:14.399Z,6.75
2022-08-14T19:44:46.560Z,6.45
2022-08-14T19:47:10.870Z,6.78
2022-08-14T19:50:08.373Z,7.07
2022-08-14T19:52:21.606Z,6.85
2022-08-14T19:54:40.492Z,7.18
2022-08-14T19:56:59.073Z,6.60
2022-08-14T19:59:22.034Z,6.78
2022-08-14T20:01:40.624Z,7.13
2022-08-14T20:04:00.566Z,7.13
2022-08-14T20:06:20.740Z,7.83
2022-08-14T20:11:01.206Z,7.13
2022-08-14T20:12:00.481Z,7.05
2022-08-14T20:14:20.558Z,7.00
2022-08-14T20:16:47.478Z,7.05
2022-08-14T20:19:28.788Z,6.82
2022-08-14T20:21:57.963Z,6.82
2022-08-14T20:24:30.533Z,7.47
2022-08-14T20:27:09.879Z,7.50
2022-08-14T20:29:30.217Z,7.13
2022-08-14T20:31:48.070Z,7.10
2022-08-14T20:34:24.309Z,7.28
2022-08-14T20:36:50.967Z,7.05
2022-08-14T20:39:15.769Z,6.85
2022-08-14T20:41:34.128Z,6.40
2022-08-14T20:44:11.884Z,6.93
2022-08-14T20:46:38.911Z,6.25
2022-08-14T20:49:01.328Z,6.72
2022-08-14T20:51:24.371Z,6.80
2022-08-14T20:53:43.133Z,7.22
2022-08-14T20:56:04.540Z,6.75
2022-08-14T20:58:44.247Z,6.90
2022-08-14T21:01:11.727Z,7.32
2022-08-14T21:03:32.607Z,6.60
2022-08-14T21:05:56.825Z,6.53
2022-08-14T21:08:22.298Z,6.35
2022-08-14T21:10:45.278Z,7.50
2022-08-14T21:13:25.628Z,7.00
2022-08-14T21:15:57.672Z,7.68
2022-08-14T21:18:17.166Z,6.57
2022-08-14T21:20:37.254Z,7.38
2022-08-14T21:23:01.227Z,6.80
2022-08-14T21:27:40.352Z,7.07
2022-08-14T21:30:21.003Z,7.18
2022-08-14T21:32:47.029Z,6.60
2022-08-14T21:35:10.331Z,6.88
2022-08-14T21:37:29.845Z,7.13
2022-08-14T21:39:48.148Z,6.97
2022-08-14T21:42:17.463Z,7.00
2022-08-14T21:44:43.901Z,7.05
2022-08-14T21:47:03.758Z,6.53
2022-08-14T21:49:33.722Z,7.15
2022-08-14T21:52:00.027Z,7.00
2022-08-14T21:54:49.076Z,6.97
2022-08-14T21:57:13.740Z,7.25
2022-08-14T21:59:34.130Z,7.25
2022-08-14T22:01:59.434Z,7.18
2022-08-14T22:04:33.730Z,6.95
2022-08-14T22:06:52.988Z,7.15
2022-08-14T22:09:11.824Z,7.15
2022-08-14T22:11:30.124Z,7.47
2022-08-14T22:14:02.184Z,6.95
2022-08-14T22:17:00.076Z,6.97
2022-08-14T22:19:15.033Z,7.28
2022-08-14T22:23:56.002Z,6.85
2022-08-14T22:26:21.708Z,7.03
2022-08-14T22:28:45.000Z,6.90
2022-08-14T22:31:10.256Z,7.35
2022-08-14T22:33:30.804Z,7.55
2022-08-14T22:35:56.220Z,7.13
2022-08-14T22:38:37.924Z,7.70
2022-08-14T22:41:09.840Z,7.28
2022-08-14T22:43:31.598Z,7.68
2022-08-14T22:45:55.578Z,7.80
2022-08-14T22:48:13.924Z,7.57
2022-08-14T22:50:34.425Z,7.10
2022-08-14T22:52:53.097Z,7.85
2022-08-14T22:55:14.308Z,7.63
2022-08-14T22:57:37.338Z,7.38
2022-08-14T23:00:00.084Z,7.93
2022-08-14T23:02:30.059Z,7.82
2022-08-14T23:04:53.953Z,7.38
2022-08-14T23:07:22.323Z,8.07
2022-08-14T23:09:55.827Z,8.00
2022-08-14T23:12:28.020Z,7.57
2022-08-14T23:14:47.081Z,7.60
2022-08-14T23:17:06.101Z,7.82
2022-08-14T23:19:34.665Z,7.70
2022-08-14T23:21:54.851Z,8.10
2022-08-14T23:24:14.297Z,7.43
2022-08-14T23:26:47.870Z,7.50
2022-08-14T23:29:08.017Z,8.07
2022-08-14T23:31:34.395Z,7.95
2022-08-14T23:33:56.040Z,7.90
2022-08-14T23:36:32.201Z,7.68
2022-08-14T23:38:53.243Z,7.97
2022-08-14T23:41:12.850Z,8.38
2022-08-14T23:43:34.982Z,7.38
2022-08-14T23:45:55.357Z,7.95
2022-08-14T23:48:21.247Z,8.02
2022-08-14T23:50:44.298Z,7.88
2022-08-14T23:53:07.899Z,8.38
2022-08-14T23:55:28.674Z,7.78
2022-08-14T23:57:58.684Z,8.05
